createdAt,value
2023-01-21T00:00:03.037Z,99.63
2023-01-21T00:01:03.004Z,99.53
2023-01-21T00:02:03.031Z,99.53
2023-01-21T00:03:03.065Z,99.53
2023-01-21T00:04:02.957Z,99.47
2023-01-21T00:05:02.956Z,99.37
2023-01-21T00:06:02.955Z,99.47
2023-01-21T00:07:02.927Z,99.37
2023-01-21T00:08:03.006Z,99.26
2023-01-21T00:09:02.897Z,99.05
2023-01-21T00:10:02.909Z,99.26
2023-01-21T00:11:02.886Z,99.26
2023-01-21T00:12:02.860Z,99.37
2023-01-21T00:13:02.851Z,99.16
2023-01-21T00:14:02.840Z,99.16
2023-01-21T00:15:02.822Z,99.05
2023-01-21T00:16:02.895Z,99.16
2023-01-21T00:17:02.792Z,99.26
2023-01-21T00:18:02.812Z,99.26
2023-01-21T00:19:02.772Z,99.16
2023-01-21T00:20:02.764Z,99.16
2023-01-21T00:21:02.764Z,99.16
2023-01-21T00:22:02.744Z,99.16
2023-01-21T00:23:02.739Z,99.16
2023-01-21T00:24:02.714Z,99.16
2023-01-21T00:25:02.690Z,99.16
2023-01-21T00:26:02.715Z,99.26
2023-01-21T00:27:02.675Z,99.26
2023-01-21T00:28:02.685Z,99.26
2023-01-21T00:29:02.644Z,99.16
2023-01-21T00:30:02.635Z,99.10
2023-01-21T00:31:02.908Z,98.95
2023-01-21T00:32:02.610Z,98.95
2023-01-21T00:33:02.596Z,98.74
2023-01-21T00:34:02.605Z,98.85
2023-01-21T00:35:02.571Z,98.79
2023-01-21T00:36:02.568Z,98.68
2023-01-21T00:37:02.548Z,98.58
2023-01-21T00:38:02.531Z,98.58
2023-01-21T00:39:02.515Z,98.79
2023-01-21T00:40:02.517Z,98.79
2023-01-21T00:41:02.504Z,98.58
2023-01-21T00:42:02.484Z,98.47
2023-01-21T00:43:02.474Z,98.47
2023-01-21T00:44:02.465Z,98.58
2023-01-21T00:45:02.447Z,98.58
2023-01-21T00:46:02.556Z,98.58
2023-01-21T00:47:02.426Z,98.68
2023-01-21T00:48:02.407Z,98.83
2023-01-21T00:49:02.392Z,98.89
2023-01-21T00:50:02.410Z,98.93
2023-01-21T00:51:02.403Z,98.83
2023-01-21T00:52:02.355Z,98.93
2023-01-21T00:53:02.348Z,99.04
2023-01-21T00:54:02.332Z,98.83
2023-01-21T00:55:02.316Z,99.04
2023-01-21T00:56:02.331Z,99.08
2023-01-21T00:57:02.293Z,99.08
2023-01-21T00:58:02.281Z,99.08
2023-01-21T00:59:02.269Z,99.08
2023-01-21T01:00:02.257Z,99.08
2023-01-21T01:01:02.266Z,99.08
2023-01-21T01:02:02.233Z,99.08
2023-01-21T01:03:02.278Z,99.08
2023-01-21T01:04:02.206Z,99.19
2023-01-21T01:05:02.189Z,99.19
2023-01-21T01:06:02.235Z,99.08
2023-01-21T01:07:02.169Z,98.98
2023-01-21T01:08:02.156Z,99.13
2023-01-21T01:09:02.162Z,99.13
2023-01-21T01:10:02.149Z,99.24
2023-01-21T01:11:02.157Z,99.24
2023-01-21T01:12:02.123Z,99.13
2023-01-21T01:13:02.100Z,99.02
2023-01-21T01:14:02.079Z,99.13
2023-01-21T01:15:02.070Z,99.13
2023-01-21T01:16:02.101Z,99.13
2023-01-21T01:17:02.055Z,99.02
2023-01-21T01:18:02.029Z,99.07
2023-01-21T01:19:02.013Z,99.02
2023-01-21T01:20:02.001Z,99.07
2023-01-21T01:21:01.989Z,99.07
2023-01-21T01:22:02.024Z,99.18
2023-01-21T01:23:01.963Z,99.18
2023-01-21T01:24:01.954Z,99.07
2023-01-21T01:25:01.940Z,99.28
2023-01-21T01:26:01.925Z,99.28
2023-01-21T01:27:01.925Z,99.38
2023-01-21T01:28:01.902Z,99.49
2023-01-21T01:29:01.885Z,99.38
2023-01-21T01:30:01.873Z,99.28
2023-01-21T01:31:01.949Z,99.54
2023-01-21T01:32:01.863Z,99.64
2023-01-21T01:33:01.832Z,99.74
2023-01-21T01:34:01.865Z,99.74
2023-01-21T01:35:01.812Z,99.74
2023-01-21T01:36:01.801Z,99.85
2023-01-21T01:37:01.799Z,99.85
2023-01-21T01:38:01.799Z,99.95
2023-01-21T01:39:01.762Z,99.95
2023-01-21T01:40:01.749Z,99.95
2023-01-21T01:41:01.748Z,99.95
2023-01-21T01:42:01.739Z,99.99
2023-01-21T01:43:01.707Z,99.99
2023-01-21T01:44:11.113Z,99.99
2023-01-21T01:45:01.718Z,99.99
2023-01-21T01:46:01.766Z,99.99
2023-01-21T01:47:01.683Z,99.99
2023-01-21T01:48:01.659Z,99.99
2023-01-21T01:49:01.650Z,99.90
2023-01-21T01:50:01.648Z,99.99
2023-01-21T01:51:01.680Z,99.99
2023-01-21T01:52:01.625Z,99.99
2023-01-21T01:53:01.598Z,99.99
2023-01-21T01:54:01.606Z,99.99
2023-01-21T01:55:01.568Z,99.99
2023-01-21T01:56:01.548Z,99.99
2023-01-21T01:57:01.582Z,99.99
2023-01-21T01:58:01.521Z,99.99
2023-01-21T01:59:01.555Z,99.99
2023-01-21T02:00:01.541Z,99.99
2023-01-21T02:01:01.504Z,99.99
2023-01-21T02:02:01.594Z,99.99
2023-01-21T02:03:01.575Z,99.98
2023-01-21T02:04:01.459Z,99.98
2023-01-21T02:05:01.433Z,99.99
2023-01-21T02:06:01.445Z,99.98
2023-01-21T02:07:01.446Z,99.77
2023-01-21T02:08:01.440Z,99.77
2023-01-21T02:09:01.376Z,99.67
2023-01-21T02:10:01.404Z,99.57
2023-01-21T02:11:01.367Z,99.57
2023-01-21T02:12:01.390Z,99.46
2023-01-21T02:13:01.338Z,99.57
2023-01-21T02:14:01.316Z,99.57
2023-01-21T02:15:01.318Z,99.67
2023-01-21T02:16:01.406Z,99.71
2023-01-21T02:17:01.316Z,99.82
2023-01-21T02:18:01.274Z,99.71
2023-01-21T02:19:01.260Z,99.71
2023-01-21T02:20:01.248Z,99.61
2023-01-21T02:21:01.230Z,99.61
2023-01-21T02:22:01.233Z,99.30
2023-01-21T02:23:01.214Z,99.30
2023-01-21T02:24:01.197Z,99.19
2023-01-21T02:25:01.180Z,98.98
2023-01-21T02:26:01.191Z,98.77
2023-01-21T02:27:01.173Z,98.56
2023-01-21T02:28:01.148Z,98.56
2023-01-21T02:29:01.140Z,98.46
2023-01-21T02:30:01.123Z,98.46
2023-01-21T02:31:01.211Z,98.35
2023-01-21T02:32:01.122Z,98.35
2023-01-21T02:33:01.103Z,98.46
2023-01-21T02:34:01.084Z,98.46
2023-01-21T02:35:01.070Z,98.46
2023-01-21T02:36:01.049Z,98.35
2023-01-21T02:37:01.037Z,98.35
2023-01-21T02:38:01.042Z,98.14
2023-01-21T02:39:01.010Z,98.14
2023-01-21T02:40:01.022Z,98.04
2023-01-21T02:41:00.992Z,98.04
2023-01-21T02:42:00.998Z,97.93
2023-01-21T02:43:00.976Z,98.04
2023-01-21T02:44:00.944Z,98.04
2023-01-21T02:45:00.942Z,98.14
2023-01-21T02:46:00.929Z,97.93
2023-01-21T02:47:00.915Z,97.93
2023-01-21T02:48:00.927Z,97.83
2023-01-21T02:49:00.891Z,97.72
2023-01-21T02:50:00.890Z,97.62
2023-01-21T02:51:00.888Z,97.52
2023-01-21T02:52:00.863Z,97.52
2023-01-21T02:53:00.861Z,97.41
2023-01-21T02:54:00.834Z,97.62
2023-01-21T02:55:00.842Z,97.72
2023-01-21T02:56:00.805Z,97.66
2023-01-21T02:57:00.788Z,97.66
2023-01-21T02:58:00.814Z,97.62
2023-01-21T02:59:00.766Z,97.66
2023-01-21T03:00:00.749Z,97.62
2023-01-21T03:01:00.781Z,97.62
2023-01-21T03:02:00.804Z,97.77
2023-01-21T03:03:00.743Z,97.87
2023-01-21T03:04:00.708Z,97.83
2023-01-21T03:05:00.693Z,97.77
2023-01-21T03:06:00.682Z,97.66
2023-01-21T03:07:00.684Z,97.66
2023-01-21T03:08:00.667Z,97.66
2023-01-21T03:09:00.640Z,97.77
2023-01-21T03:10:00.637Z,97.87
2023-01-21T03:11:00.623Z,97.87
2023-01-21T03:12:00.608Z,97.87
2023-01-21T03:13:00.626Z,97.77
2023-01-21T03:14:00.604Z,97.98
2023-01-21T03:15:00.569Z,98.08
2023-01-21T03:16:00.606Z,98.34
2023-01-21T03:17:00.545Z,98.44
2023-01-21T03:18:00.551Z,98.44
2023-01-21T03:19:00.519Z,98.55
2023-01-21T03:20:00.519Z,98.65
2023-01-21T03:21:00.497Z,98.65
2023-01-21T03:22:00.481Z,98.75
2023-01-21T03:23:00.502Z,98.75
2023-01-21T03:24:00.486Z,98.86
2023-01-21T03:25:00.450Z,98.97
2023-01-21T03:26:00.452Z,98.86
2023-01-21T03:27:00.426Z,98.75
2023-01-21T03:28:00.427Z,98.55
2023-01-21T03:29:00.397Z,98.44
2023-01-21T03:30:00.410Z,98.65
2023-01-21T03:31:00.442Z,98.75
2023-01-21T03:32:00.372Z,99.11
2023-01-21T03:33:00.365Z,99.28
2023-01-21T03:34:00.371Z,99.43
2023-01-21T03:35:00.327Z,99.54
2023-01-21T03:36:00.312Z,99.64
2023-01-21T03:37:00.296Z,99.74
2023-01-21T03:38:00.302Z,99.74
2023-01-21T03:39:00.281Z,99.74
2023-01-21T03:40:00.259Z,99.74
2023-01-21T03:41:00.259Z,99.74
2023-01-21T03:42:00.245Z,99.85
2023-01-21T03:43:00.251Z,99.85
2023-01-21T03:44:00.222Z,99.85
2023-01-21T03:45:00.244Z,99.85
2023-01-21T03:46:00.273Z,99.74
2023-01-21T03:47:00.182Z,99.85
2023-01-21T03:48:00.181Z,99.85
2023-01-21T03:49:00.158Z,99.85
2023-01-21T03:50:00.161Z,99.96
2023-01-21T03:51:00.165Z,99.96
2023-01-21T03:52:00.127Z,99.99
2023-01-21T03:53:00.120Z,99.99
2023-01-21T03:54:00.122Z,99.99
2023-01-21T03:55:00.138Z,99.99
2023-01-21T03:56:00.097Z,99.99
2023-01-21T03:57:00.087Z,99.99
2023-01-21T03:58:00.104Z,99.99
2023-01-21T03:59:00.034Z,99.99
2023-01-21T04:00:00.026Z,99.99
2023-01-21T04:01:00.065Z,99.99
2023-01-21T04:02:00.081Z,99.99
2023-01-21T04:02:59.986Z,99.79
2023-01-21T04:03:59.983Z,99.90
2023-01-21T04:04:59.960Z,99.90
2023-01-21T04:05:59.943Z,99.90
2023-01-21T04:06:59.933Z,99.99
2023-01-21T04:07:59.926Z,99.99
2023-01-21T04:08:59.922Z,99.99
2023-01-21T04:09:59.897Z,99.99
2023-01-21T04:10:59.889Z,99.99
2023-01-21T04:11:59.873Z,99.99
2023-01-21T04:12:59.865Z,99.99
2023-01-21T04:13:59.860Z,99.99
2023-01-21T04:14:59.835Z,99.99
2023-01-21T04:15:59.830Z,99.99
2023-01-21T04:16:59.822Z,99.99
2023-01-21T04:17:59.837Z,99.99
2023-01-21T04:18:59.802Z,99.99
2023-01-21T04:19:59.777Z,99.99
2023-01-21T04:20:59.759Z,99.99
2023-01-21T04:21:59.749Z,99.99
2023-01-21T04:22:59.739Z,99.99
2023-01-21T04:23:59.737Z,99.99
2023-01-21T04:24:59.717Z,99.99
2023-01-21T04:25:59.710Z,99.99
2023-01-21T04:26:59.699Z,99.99
2023-01-21T04:27:59.673Z,99.99
2023-01-21T04:28:59.683Z,99.99
2023-01-21T04:29:59.650Z,99.99
2023-01-21T04:30:59.731Z,99.99
2023-01-21T04:31:59.645Z,99.99
2023-01-21T04:32:59.614Z,99.99
2023-01-21T04:33:59.638Z,99.99
2023-01-21T04:34:59.590Z,99.99
2023-01-21T04:35:59.599Z,99.99
2023-01-21T04:36:59.576Z,99.99
2023-01-21T04:37:59.565Z,99.99
2023-01-21T04:38:59.552Z,99.99
2023-01-21T04:39:59.530Z,99.99
2023-01-21T04:40:59.519Z,99.99
2023-01-21T04:41:59.499Z,99.99
2023-01-21T04:42:59.492Z,99.99
2023-01-21T04:43:59.498Z,99.99
2023-01-21T04:44:59.471Z,99.99
2023-01-21T04:45:59.570Z,99.99
2023-01-21T04:46:59.440Z,99.99
2023-01-21T04:47:59.429Z,99.99
2023-01-21T04:48:59.434Z,99.99
2023-01-21T04:49:59.426Z,99.99
2023-01-21T04:50:59.436Z,99.99
2023-01-21T04:51:59.375Z,99.99
2023-01-21T04:52:59.377Z,99.99
2023-01-21T04:53:59.374Z,99.99
2023-01-21T04:54:59.339Z,99.99
2023-01-21T04:55:59.337Z,99.99
2023-01-21T04:56:59.319Z,99.99
2023-01-21T04:57:59.307Z,99.99
2023-01-21T04:58:59.319Z,99.99
2023-01-21T04:59:59.280Z,99.99
2023-01-21T05:00:59.280Z,99.99
2023-01-21T05:01:59.284Z,99.99
2023-01-21T05:02:59.247Z,99.99
2023-01-21T05:03:59.248Z,99.99
2023-01-21T05:04:59.218Z,99.99
2023-01-21T05:05:59.230Z,99.99
2023-01-21T05:06:59.202Z,99.99
2023-01-21T05:07:59.192Z,99.99
2023-01-21T05:08:59.191Z,99.99
2023-01-21T05:09:59.163Z,99.99
2023-01-21T05:10:59.147Z,99.99
2023-01-21T05:11:59.132Z,99.99
2023-01-21T05:12:59.121Z,99.99
2023-01-21T05:13:59.132Z,99.99
2023-01-21T05:14:59.103Z,99.99
2023-01-21T05:15:59.132Z,99.99
2023-01-21T05:16:59.237Z,99.99
2023-01-21T05:17:59.061Z,99.99
2023-01-21T05:18:59.069Z,99.99
2023-01-21T05:19:59.057Z,99.99
2023-01-21T05:20:59.031Z,99.99
2023-01-21T05:21:59.027Z,99.99
2023-01-21T05:22:59.027Z,99.99
2023-01-21T05:23:59.001Z,99.99
2023-01-21T05:24:58.979Z,99.99
2023-01-21T05:25:58.966Z,99.99
2023-01-21T05:26:58.955Z,99.99
2023-01-21T05:27:58.938Z,99.99
2023-01-21T05:28:58.954Z,99.99
2023-01-21T05:29:58.925Z,99.99
2023-01-21T05:30:58.979Z,99.99
2023-01-21T05:31:58.972Z,99.99
2023-01-21T05:32:58.875Z,99.99
2023-01-21T05:33:58.887Z,99.99
2023-01-21T05:34:58.851Z,99.99
2023-01-21T05:35:58.836Z,99.99
2023-01-21T05:36:58.828Z,99.99
2023-01-21T05:38:00.386Z,99.99
2023-01-21T05:38:58.821Z,99.99
2023-01-21T05:39:58.795Z,99.99
2023-01-21T05:40:58.781Z,99.99
2023-01-21T05:41:58.760Z,99.99
2023-01-21T05:42:58.758Z,99.99
2023-01-21T05:43:58.757Z,99.99
2023-01-21T05:44:58.726Z,99.99
2023-01-21T05:45:58.741Z,99.99
2023-01-21T05:46:58.700Z,99.99
2023-01-21T05:47:58.687Z,99.99
2023-01-21T05:48:58.680Z,99.99
2023-01-21T05:49:58.679Z,99.99
2023-01-21T05:50:58.740Z,99.99
2023-01-21T05:51:58.651Z,99.99
2023-01-21T05:52:58.633Z,99.99
2023-01-21T05:53:58.638Z,99.99
2023-01-21T05:55:02.203Z,99.99
2023-01-21T05:55:58.594Z,99.99
2023-01-21T05:56:58.576Z,99.99
2023-01-21T05:57:58.565Z,99.99
2023-01-21T05:58:58.553Z,99.99
2023-01-21T05:59:58.585Z,99.99
2023-01-21T06:00:58.529Z,99.99
2023-01-21T06:01:58.521Z,99.99
2023-01-21T06:02:58.506Z,99.99
2023-01-21T06:03:58.545Z,99.99
2023-01-21T06:04:58.515Z,99.99
2023-01-21T06:05:58.474Z,99.99
2023-01-21T06:06:58.457Z,99.99
2023-01-21T06:07:58.446Z,99.99
2023-01-21T06:08:58.431Z,99.99
2023-01-21T06:09:58.462Z,99.99
2023-01-21T06:10:58.405Z,99.99
2023-01-21T06:11:58.393Z,99.99
2023-01-21T06:12:58.383Z,99.99
2023-01-21T06:13:58.378Z,99.99
2023-01-21T06:14:58.369Z,99.99
2023-01-21T06:15:58.427Z,99.99
2023-01-21T06:16:58.333Z,99.99
2023-01-21T06:17:58.318Z,99.99
2023-01-21T06:18:58.312Z,99.99
2023-01-21T06:19:58.315Z,99.99
2023-01-21T06:20:58.286Z,99.99
2023-01-21T06:21:58.273Z,99.99
2023-01-21T06:22:58.260Z,99.99
2023-01-21T06:23:58.252Z,99.99
2023-01-21T06:24:58.255Z,99.99
2023-01-21T06:25:58.236Z,99.99
2023-01-21T06:26:58.214Z,99.99
2023-01-21T06:27:58.205Z,99.99
2023-01-21T06:28:58.195Z,99.99
2023-01-21T06:29:58.190Z,99.99
2023-01-21T06:30:58.319Z,99.99
2023-01-21T06:31:58.285Z,99.99
2023-01-21T06:32:58.142Z,99.99
2023-01-21T06:33:58.145Z,99.99
2023-01-21T06:34:58.134Z,99.99
2023-01-21T06:35:58.108Z,99.99
2023-01-21T06:36:58.088Z,99.99
2023-01-21T06:37:58.079Z,99.99
2023-01-21T06:38:58.068Z,99.99
2023-01-21T06:39:58.070Z,99.99
2023-01-21T06:40:58.037Z,99.99
2023-01-21T06:41:58.056Z,99.99
2023-01-21T06:42:58.017Z,99.99
2023-01-21T06:43:58.002Z,99.99
2023-01-21T06:44:58.007Z,99.99
2023-01-21T06:45:58.098Z,99.99
2023-01-21T06:47:01.722Z,99.99
2023-01-21T06:47:57.958Z,99.99
2023-01-21T06:48:57.941Z,99.99
2023-01-21T06:49:57.928Z,99.99
2023-01-21T06:50:57.984Z,99.99
2023-01-21T06:51:57.903Z,99.99
2023-01-21T06:52:57.887Z,99.99
2023-01-21T06:53:57.875Z,99.99
2023-01-21T06:54:57.862Z,99.99
2023-01-21T06:55:57.870Z,99.99
2023-01-21T06:56:57.843Z,99.99
2023-01-21T06:57:57.847Z,99.99
2023-01-21T06:58:57.821Z,99.99
2023-01-21T06:59:57.802Z,99.99
2023-01-21T07:00:57.809Z,99.99
2023-01-21T07:01:57.843Z,99.99
2023-01-21T07:02:57.775Z,99.99
2023-01-21T07:03:57.765Z,99.99
2023-01-21T07:04:59.165Z,99.99
2023-01-21T07:05:57.773Z,99.99
2023-01-21T07:06:57.720Z,99.99
2023-01-21T07:07:57.709Z,99.99
2023-01-21T07:08:57.694Z,99.99
2023-01-21T07:09:57.681Z,99.99
2023-01-21T07:10:57.683Z,99.99
2023-01-21T07:11:57.657Z,99.99
2023-01-21T07:12:57.647Z,99.99
2023-01-21T07:13:57.651Z,99.99
2023-01-21T07:14:57.622Z,99.99
2023-01-21T07:15:57.645Z,99.99
2023-01-21T07:16:57.593Z,99.99
2023-01-21T07:17:57.587Z,99.99
2023-01-21T07:18:57.572Z,99.99
2023-01-21T07:19:57.560Z,99.99
2023-01-21T07:20:57.561Z,99.99
2023-01-21T07:21:57.536Z,99.99
2023-01-21T07:22:57.522Z,99.99
2023-01-21T07:23:57.512Z,99.99
2023-01-21T07:24:57.499Z,99.99
2023-01-21T07:25:57.500Z,99.99
2023-01-21T07:26:57.467Z,99.99
2023-01-21T07:27:57.483Z,99.99
2023-01-21T07:28:57.455Z,99.99
2023-01-21T07:29:57.476Z,99.99
2023-01-21T07:30:57.501Z,99.99
2023-01-21T07:31:57.496Z,99.99
2023-01-21T07:32:57.405Z,99.99
2023-01-21T07:33:57.397Z,99.99
2023-01-21T07:34:57.380Z,99.99
2023-01-21T07:35:57.374Z,99.99
2023-01-21T07:36:57.356Z,99.99
2023-01-21T07:37:57.338Z,99.99
2023-01-21T07:38:57.328Z,99.99
2023-01-21T07:39:57.316Z,99.99
2023-01-21T07:40:57.311Z,99.99
2023-01-21T07:41:57.287Z,99.99
2023-01-21T07:42:57.289Z,99.99
2023-01-21T07:43:57.265Z,99.99
2023-01-21T07:44:57.262Z,99.99
2023-01-21T07:45:59.923Z,99.99
2023-01-21T07:46:57.229Z,99.99
2023-01-21T07:47:57.216Z,99.99
2023-01-21T07:48:57.209Z,99.99
2023-01-21T07:49:57.185Z,99.99
2023-01-21T07:50:57.225Z,99.99
2023-01-21T07:51:57.167Z,99.99
2023-01-21T07:52:57.153Z,99.99
2023-01-21T07:53:57.142Z,99.99
2023-01-21T07:54:57.128Z,99.99
2023-01-21T07:55:57.148Z,99.99
2023-01-21T07:56:57.103Z,99.99
2023-01-21T07:57:57.091Z,99.99
2023-01-21T07:58:57.084Z,99.99
2023-01-21T07:59:57.069Z,99.99
2023-01-21T08:00:57.075Z,99.99
2023-01-21T08:01:57.196Z,99.99
2023-01-21T08:02:57.085Z,99.90
2023-01-21T08:03:57.020Z,99.79
2023-01-21T08:04:57.011Z,99.58
2023-01-21T08:05:57.013Z,99.48
2023-01-21T08:06:57.104Z,99.27
2023-01-21T08:07:56.971Z,99.05
2023-01-21T08:08:56.953Z,99.01
2023-01-21T08:09:56.943Z,99.01
2023-01-21T08:10:56.927Z,98.80
2023-01-21T08:11:56.947Z,98.65
2023-01-21T08:12:56.915Z,98.44
2023-01-21T08:13:56.892Z,98.23
2023-01-21T08:14:56.900Z,98.02
2023-01-21T08:15:56.963Z,97.50
2023-01-21T08:16:56.872Z,97.29
2023-01-21T08:17:56.880Z,97.39
2023-01-21T08:18:56.835Z,97.24
2023-01-21T08:19:56.825Z,96.93
2023-01-21T08:20:56.823Z,96.93
2023-01-21T08:21:56.814Z,96.93
2023-01-21T08:22:56.787Z,96.67
2023-01-21T08:23:56.770Z,96.57
2023-01-21T08:24:56.759Z,96.36
2023-01-21T08:25:56.744Z,96.15
2023-01-21T08:26:56.752Z,95.84
2023-01-21T08:27:56.721Z,95.73
2023-01-21T08:28:56.705Z,95.52
2023-01-21T08:29:56.699Z,95.31
2023-01-21T08:30:56.692Z,95.10
2023-01-21T08:31:56.758Z,95.10
2023-01-21T08:32:56.655Z,95.00
2023-01-21T08:33:56.668Z,94.79
2023-01-21T08:34:56.639Z,95.10
2023-01-21T08:35:56.623Z,95.10
2023-01-21T08:36:56.628Z,95.31
2023-01-21T08:37:56.603Z,95.42
2023-01-21T08:38:56.583Z,95.31
2023-01-21T08:39:56.571Z,95.27
2023-01-21T08:40:56.552Z,94.95
2023-01-21T08:41:56.558Z,94.81
2023-01-21T08:42:56.534Z,94.38
2023-01-21T08:43:56.523Z,94.03
2023-01-21T08:44:56.506Z,93.40
2023-01-21T08:45:56.569Z,93.15
2023-01-21T08:46:56.493Z,93.04
2023-01-21T08:47:56.475Z,92.83
2023-01-21T08:48:56.456Z,92.69
2023-01-21T08:49:56.467Z,92.65
2023-01-21T08:50:56.501Z,92.54
2023-01-21T08:51:56.436Z,91.56
2023-01-21T08:52:56.411Z,91.25
2023-01-21T08:53:56.403Z,90.93
2023-01-21T08:54:56.386Z,90.26
2023-01-21T08:55:56.366Z,89.84
2023-01-21T08:56:56.366Z,89.39
2023-01-21T08:57:56.339Z,88.65
2023-01-21T08:58:56.329Z,87.93
2023-01-21T08:59:56.320Z,88.45
2023-01-21T09:00:56.335Z,88.97
2023-01-21T09:01:56.391Z,88.97
2023-01-21T09:02:56.299Z,89.07
2023-01-21T09:03:56.271Z,88.80
2023-01-21T09:04:56.250Z,89.05
2023-01-21T09:05:56.265Z,89.72
2023-01-21T09:06:56.242Z,90.56
2023-01-21T09:07:58.153Z,91.22
2023-01-21T09:08:56.207Z,91.75
2023-01-21T09:09:56.195Z,92.42
2023-01-21T09:10:56.182Z,92.83
2023-01-21T09:11:56.177Z,93.71
2023-01-21T09:12:56.153Z,94.24
2023-01-21T09:13:56.139Z,94.24
2023-01-21T09:14:56.126Z,94.76
2023-01-21T09:15:56.112Z,94.51
2023-01-21T09:16:56.116Z,94.62
2023-01-21T09:17:56.087Z,95.03
2023-01-21T09:18:56.076Z,94.66
2023-01-21T09:19:56.067Z,94.87
2023-01-21T09:20:56.048Z,95.29
2023-01-21T09:21:56.077Z,95.50
2023-01-21T09:22:56.029Z,95.50
2023-01-21T09:23:56.018Z,95.50
2023-01-21T09:24:55.996Z,95.50
2023-01-21T09:25:55.985Z,95.70
2023-01-21T09:26:56.000Z,96.02
2023-01-21T09:27:55.972Z,95.92
2023-01-21T09:28:55.952Z,96.02
2023-01-21T09:29:55.945Z,95.81
2023-01-21T09:30:55.979Z,96.02
2023-01-21T09:31:55.974Z,96.02
2023-01-21T09:32:55.925Z,95.81
2023-01-21T09:33:55.888Z,95.50
2023-01-21T09:34:55.878Z,95.81
2023-01-21T09:35:55.861Z,96.02
2023-01-21T09:36:55.850Z,96.23
2023-01-21T09:37:55.875Z,96.44
2023-01-21T09:38:55.825Z,96.33
2023-01-21T09:39:55.829Z,95.92
2023-01-21T09:40:55.798Z,95.60
2023-01-21T09:41:55.790Z,95.92
2023-01-21T09:42:55.789Z,95.70
2023-01-21T09:43:55.759Z,95.87
2023-01-21T09:44:55.777Z,95.87
2023-01-21T09:45:55.735Z,95.35
2023-01-21T09:46:55.727Z,95.39
2023-01-21T09:47:55.732Z,95.56
2023-01-21T09:48:55.698Z,95.35
2023-01-21T09:49:55.698Z,95.56
2023-01-21T09:50:55.775Z,95.41
2023-01-21T09:51:55.665Z,95.31
2023-01-21T09:52:55.665Z,95.31
2023-01-21T09:53:55.675Z,94.99
2023-01-21T09:54:55.627Z,94.46
2023-01-21T09:55:55.619Z,94.46
2023-01-21T09:56:55.611Z,94.46
2023-01-21T09:57:55.608Z,94.36
2023-01-21T09:58:55.572Z,94.68
2023-01-21T09:59:55.559Z,94.78
2023-01-21T10:00:55.634Z,94.68
2023-01-21T10:01:55.539Z,94.74
2023-01-21T10:02:55.534Z,94.84
2023-01-21T10:03:55.516Z,94.64
2023-01-21T10:04:55.508Z,94.21
2023-01-21T10:05:55.486Z,94.42
2023-01-21T10:06:55.483Z,93.59
2023-01-21T10:07:55.472Z,93.48
2023-01-21T10:08:55.446Z,93.59
2023-01-21T10:09:55.464Z,93.95
2023-01-21T10:10:55.432Z,94.05
2023-01-21T10:11:55.421Z,94.36
2023-01-21T10:12:55.417Z,94.26
2023-01-21T10:13:55.419Z,93.74
2023-01-21T10:14:55.423Z,93.21
2023-01-21T10:15:55.392Z,93.01
2023-01-21T10:16:55.462Z,93.42
2023-01-21T10:17:55.403Z,93.63
2023-01-21T10:18:55.350Z,93.52
2023-01-21T10:19:55.320Z,93.52
2023-01-21T10:20:55.302Z,93.59
2023-01-21T10:21:55.285Z,93.70
2023-01-21T10:22:55.295Z,93.48
2023-01-21T10:23:55.259Z,93.48
2023-01-21T10:24:55.247Z,93.44
2023-01-21T10:25:55.260Z,93.44
2023-01-21T10:26:55.224Z,93.33
2023-01-21T10:27:55.227Z,92.82
2023-01-21T10:28:55.198Z,92.29
2023-01-21T10:29:55.183Z,92.54
2023-01-21T10:30:55.291Z,93.17
2023-01-21T10:31:55.221Z,93.59
2023-01-21T10:32:55.168Z,93.70
2023-01-21T10:33:55.131Z,93.54
2023-01-21T10:34:55.120Z,93.33
2023-01-21T10:35:55.110Z,93.44
2023-01-21T10:36:55.109Z,93.44
2023-01-21T10:37:55.101Z,93.23
2023-01-21T10:38:55.072Z,93.44
2023-01-21T10:39:55.058Z,93.54
2023-01-21T10:40:55.043Z,93.44
2023-01-21T10:41:55.072Z,93.13
2023-01-21T10:42:55.023Z,93.02
2023-01-21T10:43:55.062Z,93.13
2023-01-21T10:44:54.997Z,93.08
2023-01-21T10:45:55.021Z,92.88
2023-01-21T10:46:54.986Z,92.98
2023-01-21T10:47:54.969Z,92.66
2023-01-21T10:48:54.957Z,92.56
2023-01-21T10:49:54.937Z,92.66
2023-01-21T10:50:55.005Z,92.46
2023-01-21T10:51:54.913Z,91.56
2023-01-21T10:52:54.903Z,91.77
2023-01-21T10:53:54.910Z,92.08
2023-01-21T10:54:54.877Z,91.87
2023-01-21T10:55:54.855Z,91.66
2023-01-21T10:56:54.847Z,91.72
2023-01-21T10:57:54.851Z,91.62
2023-01-21T10:58:54.838Z,90.78
2023-01-21T10:59:54.811Z,90.68
2023-01-21T11:00:54.794Z,90.58
2023-01-21T11:01:54.786Z,90.58
2023-01-21T11:02:54.823Z,89.95
2023-01-21T11:03:54.767Z,90.37
2023-01-21T11:04:54.751Z,90.58
2023-01-21T11:05:54.733Z,90.78
2023-01-21T11:06:54.723Z,90.68
2023-01-21T11:07:54.717Z,90.78
2023-01-21T11:08:54.729Z,90.37
2023-01-21T11:09:54.688Z,90.47
2023-01-21T11:10:54.678Z,90.16
2023-01-21T11:11:54.656Z,90.16
2023-01-21T11:12:54.645Z,89.95
2023-01-21T11:13:54.669Z,89.78
2023-01-21T11:14:54.626Z,89.95
2023-01-21T11:15:54.654Z,90.16
2023-01-21T11:16:54.606Z,89.95
2023-01-21T11:17:54.585Z,89.84
2023-01-21T11:18:54.592Z,90.06
2023-01-21T11:19:54.556Z,89.91
2023-01-21T11:20:54.549Z,89.81
2023-01-21T11:21:54.526Z,89.70
2023-01-21T11:22:54.533Z,89.70
2023-01-21T11:23:54.519Z,89.49
2023-01-21T11:24:54.492Z,88.97
2023-01-21T11:25:54.505Z,88.76
2023-01-21T11:26:54.474Z,88.97
2023-01-21T11:27:54.457Z,89.07
2023-01-21T11:28:54.456Z,89.28
2023-01-21T11:29:54.468Z,88.97
2023-01-21T11:30:54.795Z,89.07
2023-01-21T11:31:54.442Z,88.97
2023-01-21T11:32:54.409Z,88.87
2023-01-21T11:33:54.398Z,88.65
2023-01-21T11:34:54.366Z,88.65
2023-01-21T11:35:54.356Z,88.45
2023-01-21T11:36:54.343Z,88.55
2023-01-21T11:37:54.343Z,89.07
2023-01-21T11:38:54.343Z,88.97
2023-01-21T11:39:54.307Z,88.97
2023-01-21T11:40:54.295Z,89.07
2023-01-21T11:41:54.277Z,89.01
2023-01-21T11:42:54.265Z,89.22
2023-01-21T11:43:54.261Z,89.28
2023-01-21T11:44:54.284Z,89.07
2023-01-21T11:45:54.256Z,88.76
2023-01-21T11:46:54.229Z,88.76
2023-01-21T11:47:54.212Z,88.76
2023-01-21T11:48:54.205Z,88.76
2023-01-21T11:49:54.217Z,88.34
2023-01-21T11:50:54.243Z,88.09
2023-01-21T11:51:54.150Z,88.20
2023-01-21T11:52:54.136Z,88.09
2023-01-21T11:53:54.123Z,88.09
2023-01-21T11:54:54.157Z,88.30
2023-01-21T11:55:54.124Z,88.24
2023-01-21T11:56:54.108Z,88.09
2023-01-21T11:57:54.087Z,88.03
2023-01-21T11:58:54.086Z,87.93
2023-01-21T11:59:54.092Z,88.13
2023-01-21T12:00:54.041Z,88.55
2023-01-21T12:01:54.103Z,88.82
2023-01-21T12:02:54.088Z,88.41
2023-01-21T12:03:54.062Z,88.20
2023-01-21T12:04:54.006Z,87.82
2023-01-21T12:05:53.971Z,87.93
2023-01-21T12:06:53.963Z,87.51
2023-01-21T12:07:53.951Z,87.19
2023-01-21T12:08:53.935Z,87.57
2023-01-21T12:09:53.941Z,87.88
2023-01-21T12:10:53.916Z,87.88
2023-01-21T12:11:53.895Z,87.68
2023-01-21T12:12:53.888Z,87.37
2023-01-21T12:13:53.876Z,87.26
2023-01-21T12:14:53.875Z,87.26
2023-01-21T12:15:53.947Z,87.15
2023-01-21T12:16:53.918Z,87.32
2023-01-21T12:17:53.839Z,87.63
2023-01-21T12:18:53.813Z,87.43
2023-01-21T12:19:53.812Z,87.43
2023-01-21T12:20:53.782Z,87.53
2023-01-21T12:21:53.769Z,87.12
2023-01-21T12:22:53.763Z,86.91
2023-01-21T12:23:54.533Z,86.69
2023-01-21T12:24:53.771Z,86.69
2023-01-21T12:25:53.725Z,86.91
2023-01-21T12:26:53.708Z,86.91
2023-01-21T12:27:53.697Z,86.91
2023-01-21T12:28:53.686Z,85.97
2023-01-21T12:29:53.685Z,86.07
2023-01-21T12:30:53.750Z,86.59
2023-01-21T12:31:53.659Z,86.38
2023-01-21T12:32:53.633Z,86.59
2023-01-21T12:33:53.642Z,86.76
2023-01-21T12:34:53.648Z,86.45
2023-01-21T12:35:53.596Z,86.18
2023-01-21T12:36:53.644Z,86.18
2023-01-21T12:37:53.571Z,86.80
2023-01-21T12:38:53.558Z,86.91
2023-01-21T12:39:53.572Z,86.91
2023-01-21T12:40:53.531Z,86.69
2023-01-21T12:41:53.520Z,85.93
2023-01-21T12:42:53.512Z,85.61
2023-01-21T12:43:53.492Z,85.72
2023-01-21T12:44:53.492Z,85.82
2023-01-21T12:45:53.479Z,85.82
2023-01-21T12:46:53.537Z,86.13
2023-01-21T12:47:53.447Z,86.24
2023-01-21T12:48:53.431Z,85.68
2023-01-21T12:49:53.471Z,85.26
2023-01-21T12:50:53.456Z,84.39
2023-01-21T12:51:53.393Z,83.17